createdAt,value
2019-04-14T00:03:02.333Z,41.65
2019-04-14T00:05:35.926Z,41.02
2019-04-14T00:08:11.044Z,40.20
2019-04-14T00:10:44.292Z,40.00
2019-04-14T00:13:18.012Z,44.83
2019-04-14T00:15:53.193Z,39.35
2019-04-14T00:18:25.569Z,44.23
2019-04-14T00:20:59.870Z,40.92
2019-04-14T00:23:34.576Z,42.85
2019-04-14T00:26:09.418Z,42.85
2019-04-14T00:28:42.620Z,44.53
2019-04-14T00:31:16.029Z,43.87
2019-04-14T00:33:50.068Z,43.68
2019-04-14T00:36:26.106Z,44.10
2019-04-14T00:38:59.510Z,44.95
2019-04-14T00:41:43.614Z,45.05
2019-04-14T00:44:10.952Z,42.80
2019-04-14T00:46:51.828Z,40.80
2019-04-14T00:49:24.797Z,40.03
2019-04-14T00:51:57.799Z,40.52
2019-04-14T00:54:30.968Z,38.25
2019-04-14T00:57:03.768Z,40.15
2019-04-14T00:59:37.612Z,40.40
2019-04-14T01:02:10.929Z,40.15
2019-04-14T01:04:44.788Z,43.17
2019-04-14T01:07:17.908Z,45.05
2019-04-14T01:09:51.146Z,41.60
2019-04-14T01:12:25.608Z,40.30
2019-04-14T01:14:59.190Z,41.98
2019-04-14T01:17:33.086Z,39.83
2019-04-14T01:20:06.328Z,42.23
2019-04-14T01:22:42.329Z,39.58
2019-04-14T01:25:17.048Z,43.78
2019-04-14T01:27:51.493Z,42.88
2019-04-14T01:30:26.276Z,39.85
2019-04-14T01:33:00.827Z,42.98
2019-04-14T01:35:34.329Z,41.77
2019-04-14T01:38:08.408Z,39.92
2019-04-14T01:40:42.425Z,39.83
2019-04-14T01:43:16.737Z,39.03
2019-04-14T01:46:02.408Z,39.75
2019-04-14T01:48:25.773Z,36.42
2019-04-14T01:51:09.315Z,39.48
2019-04-14T01:53:46.852Z,35.33
2019-04-14T01:56:20.883Z,35.92
2019-04-14T01:59:02.194Z,38.58
2019-04-14T02:01:44.065Z,39.10
2019-04-14T02:04:18.120Z,40.58
2019-04-14T02:06:52.625Z,36.77
2019-04-14T02:09:27.208Z,43.15
2019-04-14T02:12:01.423Z,38.08
2019-04-14T02:14:34.788Z,36.65
2019-04-14T02:17:09.355Z,36.15
2019-04-14T02:19:43.866Z,37.45
2019-04-14T02:22:18.142Z,36.77
2019-04-14T02:24:52.684Z,36.03
2019-04-14T02:27:27.414Z,37.48
2019-04-14T02:30:03.572Z,34.65
2019-04-14T02:33:07.310Z,37.58
2019-04-14T02:35:44.862Z,35.83
2019-04-14T02:40:58.004Z,36.48
2019-04-14T02:43:37.661Z,33.67
2019-04-14T02:45:57.820Z,36.98
2019-04-14T02:53:44.512Z,36.65
2019-04-14T02:56:22.302Z,35.43
2019-04-14T02:58:53.605Z,37.45
2019-04-14T03:04:01.588Z,37.80
2019-04-14T03:06:33.523Z,37.30
2019-04-14T03:11:48.997Z,35.92
2019-04-14T03:14:27.671Z,35.03
2019-04-14T03:17:07.584Z,34.65
2019-04-14T03:19:59.494Z,35.08
2019-04-14T03:22:28.926Z,35.45
2019-04-14T03:24:47.588Z,35.35
2019-04-14T03:38:13.317Z,34.78
2019-04-14T03:43:18.767Z,35.00
2019-04-14T03:45:53.880Z,35.75
2019-04-14T03:48:42.819Z,35.88
2019-04-14T03:51:06.909Z,34.73
2019-04-14T03:53:37.742Z,33.28
2019-04-14T03:55:49.410Z,36.95
2019-04-14T03:58:18.118Z,40.33
2019-04-14T04:00:53.317Z,34.23
2019-04-14T04:03:26.437Z,37.80
2019-04-14T04:06:00.779Z,36.38
2019-04-14T04:08:33.851Z,37.55
2019-04-14T04:11:06.781Z,34.85
2019-04-14T04:13:41.206Z,37.38
2019-04-14T04:16:17.957Z,40.88
2019-04-14T04:19:00.852Z,36.98
2019-04-14T04:21:29.037Z,38.75
2019-04-14T04:24:04.307Z,39.75
2019-04-14T04:26:39.349Z,39.30
2019-04-14T04:29:13.818Z,39.63
2019-04-14T04:31:48.540Z,40.35
2019-04-14T04:34:23.069Z,42.15
2019-04-14T04:37:01.802Z,37.55
2019-04-14T04:39:41.510Z,40.65
2019-04-14T04:42:15.392Z,40.92
2019-04-14T04:44:48.951Z,41.53
2019-04-14T04:47:23.035Z,41.35
2019-04-14T04:49:57.511Z,41.83
2019-04-14T04:52:30.891Z,42.30
2019-04-14T04:55:04.619Z,39.18
2019-04-14T04:57:39.465Z,40.63
2019-04-14T05:00:13.452Z,41.35
2019-04-14T05:02:48.394Z,39.55
2019-04-14T05:05:21.617Z,42.20
2019-04-14T05:07:55.463Z,40.10
2019-04-14T05:10:30.662Z,44.40
2019-04-14T05:13:05.691Z,37.05
2019-04-14T05:15:44.581Z,39.98
2019-04-14T05:18:19.988Z,36.77
2019-04-14T05:20:55.224Z,36.08
2019-04-14T05:23:29.931Z,36.73
2019-04-14T05:26:03.027Z,39.15
2019-04-14T05:28:37.324Z,39.05
2019-04-14T05:31:10.650Z,39.98
2019-04-14T05:33:46.866Z,38.13
2019-04-14T05:36:19.548Z,39.03
2019-04-14T05:38:53.968Z,37.05
2019-04-14T05:41:28.681Z,39.50
2019-04-14T05:44:05.156Z,35.40
2019-04-14T05:46:38.102Z,33.95
2019-04-14T05:49:24.524Z,38.00
2019-04-14T05:51:45.990Z,37.45
2019-04-14T05:54:18.943Z,36.20
2019-04-14T05:56:53.671Z,35.43
2019-04-14T05:59:26.997Z,35.65
2019-04-14T06:02:00.188Z,36.70
2019-04-14T06:04:33.890Z,37.45
2019-04-14T06:07:06.788Z,36.90
2019-04-14T06:09:39.897Z,33.50
2019-04-14T06:12:12.797Z,36.38
2019-04-14T06:14:45.810Z,38.58
2019-04-14T06:17:19.318Z,36.58
2019-04-14T06:19:52.889Z,38.23
2019-04-14T06:22:26.002Z,37.13
2019-04-14T06:24:59.511Z,33.95
2019-04-14T06:27:32.436Z,35.85
2019-04-14T06:30:07.436Z,35.52
2019-04-14T06:32:42.131Z,35.13
2019-04-14T06:35:22.872Z,35.78
2019-04-14T06:37:57.354Z,37.25
2019-04-14T06:40:31.993Z,34.50
2019-04-14T06:43:05.270Z,35.03
2019-04-14T06:45:38.390Z,35.90
2019-04-14T06:48:11.369Z,32.85
2019-04-14T06:50:46.522Z,33.67
2019-04-14T06:53:19.681Z,32.83
2019-04-14T06:55:54.937Z,35.50
2019-04-14T06:58:26.856Z,36.73
2019-04-14T07:00:59.733Z,37.45
2019-04-14T07:03:32.457Z,37.73
2019-04-14T07:06:05.223Z,36.55
2019-04-14T07:08:38.394Z,34.27
2019-04-14T07:11:11.441Z,33.18
2019-04-14T07:13:48.191Z,31.15
2019-04-14T07:16:18.948Z,31.93
2019-04-14T07:18:51.857Z,31.35
2019-04-14T07:21:24.852Z,30.20
2019-04-14T07:23:58.896Z,30.95
2019-04-14T07:26:31.829Z,29.50
2019-04-14T07:29:06.451Z,35.40
2019-04-14T07:31:43.750Z,25.27
2019-04-14T07:34:16.757Z,25.20
2019-04-14T07:36:51.291Z,26.27
2019-04-14T07:39:31.928Z,26.60
2019-04-14T07:42:21.668Z,26.97
2019-04-14T07:45:04.775Z,25.37
2019-04-14T07:47:42.314Z,24.00
2019-04-14T07:50:18.514Z,27.40
2019-04-14T07:52:57.110Z,22.37
2019-04-14T07:55:45.297Z,24.63
2019-04-14T07:58:36.200Z,23.27
2019-04-14T08:01:16.573Z,23.80
2019-04-14T08:04:06.953Z,23.30
2019-04-14T08:06:39.945Z,25.77
2019-04-14T08:09:12.778Z,24.25
2019-04-14T08:11:45.620Z,23.22
2019-04-14T08:14:19.391Z,23.55
2019-04-14T08:16:52.492Z,23.65
2019-04-14T08:19:25.429Z,26.33
2019-04-14T08:21:58.470Z,27.15
2019-04-14T08:24:31.375Z,27.58
2019-04-14T08:27:04.224Z,29.15
2019-04-14T08:29:37.231Z,27.55
2019-04-14T08:32:10.168Z,31.48
2019-04-14T08:34:43.089Z,29.98
2019-04-14T08:37:15.988Z,28.10
2019-04-14T08:39:49.048Z,29.48
2019-04-14T08:42:24.489Z,27.67
2019-04-14T08:45:00.689Z,26.20
2019-04-14T08:47:38.529Z,27.20
2019-04-14T08:50:39.366Z,26.23
2019-04-14T08:53:11.090Z,27.52
2019-04-14T08:55:56.149Z,28.35
2019-04-14T08:58:30.450Z,24.23
2019-04-14T09:01:07.583Z,25.97
2019-04-14T09:04:00.284Z,25.37
2019-04-14T09:06:34.789Z,23.67
2019-04-14T09:09:16.630Z,27.40
2019-04-14T09:11:54.529Z,28.02
2019-04-14T09:14:27.509Z,26.02
2019-04-14T09:17:00.484Z,27.10
2019-04-14T09:19:33.725Z,26.70
2019-04-14T09:22:06.649Z,27.50
2019-04-14T09:24:39.689Z,24.87
2019-04-14T09:27:12.649Z,25.25
2019-04-14T09:29:45.553Z,28.80
2019-04-14T09:32:20.829Z,24.85
2019-04-14T09:34:53.809Z,25.27
2019-04-14T09:37:26.809Z,26.97
2019-04-14T09:39:59.869Z,29.80
2019-04-14T09:42:32.950Z,30.40
2019-04-14T09:45:05.835Z,31.02
2019-04-14T09:47:38.770Z,29.23
2019-04-14T09:50:13.286Z,31.82
2019-04-14T09:52:47.071Z,59.42
2019-04-14T09:55:19.986Z,26.77
2019-04-14T09:57:52.988Z,118.80
2019-04-14T10:00:26.250Z,31.90
2019-04-14T10:02:59.911Z,32.08
2019-04-14T10:05:32.890Z,30.70
2019-04-14T10:08:06.569Z,28.38
2019-04-14T10:10:39.625Z,30.32
2019-04-14T10:13:13.219Z,28.00
2019-04-14T10:15:46.549Z,27.75
2019-04-14T10:18:19.508Z,31.68
2019-04-14T10:20:53.116Z,32.35
2019-04-14T10:23:26.114Z,30.02
2019-04-14T10:25:59.069Z,31.10
2019-04-14T10:28:32.037Z,30.92
2019-04-14T10:31:04.968Z,33.10
2019-04-14T10:33:37.949Z,31.65
2019-04-14T10:36:11.649Z,31.90
2019-04-14T10:38:44.723Z,29.80
2019-04-14T10:41:17.625Z,34.13
2019-04-14T10:43:51.130Z,36.15
2019-04-14T10:46:23.989Z,32.25
2019-04-14T10:48:56.849Z,33.05
2019-04-14T10:51:33.732Z,32.40
2019-04-14T10:54:04.730Z,33.35
2019-04-14T10:56:37.709Z,32.90
2019-04-14T10:59:10.569Z,32.08
2019-04-14T11:01:43.672Z,32.95
2019-04-14T11:04:16.588Z,33.18
2019-04-14T11:07:03.328Z,34.33
2019-04-14T11:09:36.949Z,33.45
2019-04-14T11:12:12.268Z,31.85
2019-04-14T11:14:45.117Z,34.58
2019-04-14T11:17:19.018Z,31.50
2019-04-14T11:19:52.310Z,32.20
2019-04-14T11:22:26.229Z,33.02
2019-04-14T11:25:01.002Z,31.27
2019-04-14T11:27:34.070Z,30.70
2019-04-14T11:30:08.545Z,33.02
2019-04-14T11:32:41.028Z,33.48
2019-04-14T11:35:16.695Z,32.93
2019-04-14T11:38:08.553Z,34.88
2019-04-14T11:40:49.190Z,32.58
2019-04-14T11:43:22.009Z,35.80
2019-04-14T11:45:55.450Z,35.00
2019-04-14T11:48:30.356Z,35.33
2019-04-14T11:51:03.231Z,33.13
2019-04-14T11:53:36.369Z,33.40
2019-04-14T11:56:09.669Z,31.80
2019-04-14T11:58:42.948Z,32.58
2019-04-14T12:01:20.316Z,34.95
2019-04-14T12:03:57.749Z,31.75
2019-04-14T12:06:47.630Z,35.80
2019-04-14T12:09:22.350Z,34.80
2019-04-14T12:11:56.470Z,34.20
2019-04-14T12:14:29.409Z,34.55
2019-04-14T12:17:02.908Z,37.23
2019-04-14T12:19:35.737Z,36.93
2019-04-14T12:22:09.112Z,35.73
2019-04-14T12:24:42.809Z,35.17
2019-04-14T12:27:17.671Z,31.55
2019-04-14T12:29:52.186Z,34.13
2019-04-14T12:32:25.591Z,32.73
2019-04-14T12:34:58.610Z,32.13
2019-04-14T12:37:32.468Z,36.38
2019-04-14T12:40:05.429Z,34.65
2019-04-14T12:42:40.008Z,33.90
2019-04-14T12:45:31.268Z,33.35
2019-04-14T12:48:04.098Z,32.13
2019-04-14T12:50:38.671Z,31.73
2019-04-14T12:53:11.591Z,32.33
2019-04-14T12:55:44.929Z,33.45
2019-04-14T12:58:19.476Z,34.55
2019-04-14T13:00:54.149Z,35.65
2019-04-14T13:03:27.469Z,34.13
2019-04-14T13:06:00.968Z,32.93
2019-04-14T13:08:34.129Z,32.10
2019-04-14T13:11:08.449Z,33.18
2019-04-14T13:13:41.408Z,32.38
2019-04-14T13:16:14.650Z,32.30
2019-04-14T13:18:47.457Z,28.67
2019-04-14T13:21:20.569Z,31.20
2019-04-14T13:23:53.430Z,62.90
2019-04-14T13:26:26.448Z,131.25
2019-04-14T13:28:59.507Z,31.12
2019-04-14T13:31:32.589Z,29.05
2019-04-14T13:34:05.950Z,26.02
2019-04-14T13:36:39.051Z,25.08
2019-04-14T13:39:12.797Z,26.57
2019-04-14T13:41:46.155Z,27.13
2019-04-14T13:44:19.179Z,29.52
2019-04-14T13:46:52.170Z,31.95
2019-04-14T13:49:25.229Z,29.65
2019-04-14T13:51:58.177Z,29.98
2019-04-14T13:54:31.090Z,28.02
2019-04-14T13:57:03.930Z,28.17
2019-04-14T13:59:36.862Z,28.50
2019-04-14T14:02:10.031Z,29.75
2019-04-14T14:04:43.116Z,29.67
2019-04-14T14:07:16.029Z,29.42
2019-04-14T14:09:49.074Z,30.70
2019-04-14T14:12:32.363Z,28.12
2019-04-14T14:15:12.997Z,28.25
2019-04-14T14:17:47.609Z,29.60
2019-04-14T14:20:26.973Z,33.30
2019-04-14T14:23:17.489Z,29.82
2019-04-14T14:25:53.396Z,30.62
2019-04-14T14:28:26.308Z,31.87
2019-04-14T14:30:59.291Z,30.72
2019-04-14T14:33:32.628Z,30.25
2019-04-14T14:36:06.097Z,29.12
2019-04-14T14:38:39.033Z,29.57
2019-04-14T14:41:13.528Z,29.90
2019-04-14T14:43:46.349Z,29.75
2019-04-14T14:46:28.405Z,26.68
2019-04-14T14:49:05.857Z,29.05
2019-04-14T14:51:49.166Z,32.95
2019-04-14T14:54:22.036Z,26.60
2019-04-14T14:56:54.976Z,29.25
2019-04-14T14:59:27.871Z,26.75
2019-04-14T15:02:00.672Z,24.00
2019-04-14T15:04:33.610Z,24.60
2019-04-14T15:07:06.671Z,19.40
2019-04-14T15:09:39.868Z,19.52
2019-04-14T15:12:12.809Z,21.17
2019-04-14T15:14:45.776Z,26.52
2019-04-14T15:17:19.211Z,24.63
2019-04-14T15:19:52.170Z,23.80
2019-04-14T15:22:25.271Z,22.82
2019-04-14T15:24:58.229Z,23.70
2019-04-14T15:27:31.288Z,22.48
2019-04-14T15:30:05.493Z,26.07
2019-04-14T15:32:38.396Z,27.05
2019-04-14T15:35:11.389Z,24.47
2019-04-14T15:37:44.289Z,24.82
2019-04-14T15:40:17.130Z,23.07
2019-04-14T15:42:50.233Z,26.05
2019-04-14T15:45:23.278Z,22.90
2019-04-14T15:47:56.717Z,26.45
2019-04-14T15:50:29.649Z,24.63
2019-04-14T15:53:02.746Z,25.17
2019-04-14T15:55:37.730Z,25.00
2019-04-14T15:58:18.209Z,26.52
2019-04-14T16:01:08.904Z,25.20
2019-04-14T16:03:43.398Z,24.32
2019-04-14T16:06:16.228Z,30.72
2019-04-14T16:09:07.350Z,28.98
2019-04-14T16:11:44.509Z,28.80
2019-04-14T16:14:27.937Z,33.88
2019-04-14T16:17:18.808Z,32.42
2019-04-14T16:19:59.312Z,28.50
2019-04-14T16:22:32.870Z,25.60
2019-04-14T16:25:05.870Z,26.40
2019-04-14T16:27:46.489Z,29.32
2019-04-14T16:30:26.968Z,38.05
2019-04-14T16:33:13.969Z,26.95
2019-04-14T16:35:48.571Z,30.37
2019-04-14T16:38:22.649Z,46.23
2019-04-14T16:40:55.609Z,36.98
2019-04-14T16:43:28.570Z,24.70
2019-04-14T16:46:01.609Z,23.07
2019-04-14T16:48:34.943Z,23.65
2019-04-14T16:51:09.489Z,24.43
2019-04-14T16:53:44.237Z,29.92
2019-04-14T16:56:35.030Z,59.23
2019-04-14T16:59:09.189Z,42.85
2019-04-14T17:01:43.977Z,67.58
2019-04-14T17:04:16.768Z,27.80
2019-04-14T17:06:49.649Z,23.30
2019-04-14T17:09:23.369Z,23.35
2019-04-14T17:11:59.216Z,22.85
2019-04-14T17:14:32.588Z,19.15
2019-04-14T17:17:07.057Z,20.92
2019-04-14T17:19:50.709Z,19.12
2019-04-14T17:22:27.969Z,20.10
2019-04-14T17:25:02.356Z,19.12
2019-04-14T17:27:49.148Z,20.37
2019-04-14T17:30:39.831Z,18.90
2019-04-14T17:33:23.549Z,18.10
2019-04-14T17:36:07.088Z,20.02
2019-04-14T17:38:39.757Z,22.15
2019-04-14T17:41:14.426Z,22.52
2019-04-14T17:43:49.349Z,20.10
2019-04-14T17:46:40.089Z,19.60
2019-04-14T17:49:23.848Z,18.82
2019-04-14T17:52:14.230Z,18.48
2019-04-14T17:54:48.910Z,19.15
2019-04-14T17:57:39.389Z,17.98
2019-04-14T18:00:13.889Z,19.55
2019-04-14T18:02:48.441Z,21.40
2019-04-14T18:05:35.190Z,22.10
2019-04-14T18:08:09.916Z,22.25
2019-04-14T18:10:47.708Z,19.73
2019-04-14T18:13:38.069Z,20.32
2019-04-14T18:16:12.634Z,22.20
2019-04-14T18:18:47.277Z,24.77
2019-04-14T18:21:20.637Z,23.60
2019-04-14T18:23:53.909Z,26.27
2019-04-14T18:26:27.828Z,23.80
2019-04-14T18:29:18.757Z,22.42
2019-04-14T18:31:59.408Z,23.52
2019-04-14T18:34:35.269Z,21.77
2019-04-14T18:37:11.068Z,21.57
2019-04-14T18:39:45.810Z,21.43
2019-04-14T18:42:20.348Z,20.75
2019-04-14T18:45:08.109Z,19.42
2019-04-14T18:47:52.709Z,19.77
2019-04-14T18:50:45.491Z,20.70
2019-04-14T18:53:19.915Z,20.82
2019-04-14T18:56:06.180Z,21.00
2019-04-14T18:58:43.448Z,20.97
2019-04-14T19:01:17.988Z,20.57
2019-04-14T19:03:51.311Z,21.68
2019-04-14T19:06:24.677Z,22.22
2019-04-14T19:08:57.909Z,22.80
2019-04-14T19:11:47.369Z,22.80
2019-04-14T19:14:37.317Z,21.30
2019-04-14T19:17:30.068Z,21.35
2019-04-14T19:20:02.975Z,20.20
2019-04-14T19:22:35.931Z,20.75
2019-04-14T19:25:09.030Z,18.42
2019-04-14T19:27:41.890Z,20.62
2019-04-14T19:30:14.737Z,21.05
2019-04-14T19:32:47.616Z,18.75
2019-04-14T19:35:21.128Z,16.85
2019-04-14T19:37:54.056Z,17.92
2019-04-14T19:40:27.108Z,18.82
2019-04-14T19:43:00.268Z,21.65
2019-04-14T19:45:34.588Z,18.67
2019-04-14T19:48:08.363Z,18.23
2019-04-14T19:50:41.630Z,18.42
2019-04-14T19:53:14.548Z,17.85
2019-04-14T19:55:47.510Z,19.42
2019-04-14T19:58:20.768Z,17.92
2019-04-14T20:00:53.789Z,45.17
2019-04-14T20:03:26.789Z,31.68
2019-04-14T20:06:00.088Z,18.70
2019-04-14T20:08:33.117Z,18.10
2019-04-14T20:11:06.008Z,16.85
2019-04-14T20:13:43.509Z,17.35
2019-04-14T20:16:22.769Z,17.32
2019-04-14T20:18:55.660Z,17.55
2019-04-14T20:21:34.328Z,16.42
2019-04-14T20:24:12.129Z,12.37
2019-04-14T20:27:03.013Z,15.78
2019-04-14T20:29:37.648Z,15.90
2019-04-14T20:32:12.219Z,16.85
2019-04-14T20:34:45.354Z,22.82
2019-04-14T20:37:18.271Z,17.82
2019-04-14T20:39:51.092Z,80.20
2019-04-14T20:42:24.570Z,13.75
2019-04-14T20:44:57.611Z,13.88
2019-04-14T20:47:30.490Z,14.50
2019-04-14T20:50:03.309Z,47.95
2019-04-14T20:52:36.468Z,12.75
2019-04-14T20:55:10.508Z,15.08
2019-04-14T20:57:43.771Z,11.03
2019-04-14T21:00:17.248Z,10.40
2019-04-14T21:02:54.769Z,10.20
2019-04-14T21:05:39.548Z,11.12
2019-04-14T21:08:23.028Z,9.75
2019-04-14T21:11:09.817Z,9.38
2019-04-14T21:13:47.768Z,26.90
2019-04-14T21:16:24.949Z,8.50
2019-04-14T21:18:59.471Z,17.30
2019-04-14T21:21:41.689Z,13.45
2019-04-14T21:24:16.188Z,8.28
2019-04-14T21:26:50.909Z,6.53
2019-04-14T21:29:41.328Z,7.20
2019-04-14T21:32:34.209Z,33.45
2019-04-14T21:35:24.648Z,12.35
2019-04-14T21:37:59.229Z,6.53
2019-04-14T21:40:33.829Z,6.95
2019-04-14T21:43:06.808Z,5.60
2019-04-14T21:45:40.109Z,10.40
2019-04-14T21:48:13.028Z,5.87
2019-04-14T21:50:46.389Z,8.50
2019-04-14T21:53:19.288Z,4.50
2019-04-14T21:55:52.417Z,4.50
2019-04-14T21:58:34.182Z,4.15
2019-04-14T22:01:24.734Z,4.42
2019-04-14T22:03:59.109Z,5.35
2019-04-14T22:06:39.669Z,4.85
2019-04-14T22:09:14.309Z,4.60
2019-04-14T22:11:47.228Z,3.65
2019-04-14T22:14:21.089Z,4.00
2019-04-14T22:16:54.069Z,3.85
2019-04-14T22:19:27.029Z,3.85
2019-04-14T22:22:00.160Z,3.67
2019-04-14T22:24:33.596Z,4.33
2019-04-14T22:27:06.549Z,4.22
2019-04-14T22:29:39.790Z,4.25
2019-04-14T22:32:12.839Z,4.00
2019-04-14T22:34:46.451Z,3.62
2019-04-14T22:37:19.608Z,4.67
2019-04-14T22:39:54.969Z,4.62
2019-04-14T22:42:27.851Z,5.05
2019-04-14T22:45:01.068Z,6.40
2019-04-14T22:47:34.468Z,5.22
2019-04-14T22:50:07.637Z,4.00
2019-04-14T22:52:40.668Z,5.60
2019-04-14T22:55:13.749Z,5.72
2019-04-14T22:57:46.869Z,4.00
2019-04-14T23:00:27.709Z,5.83
2019-04-14T23:03:02.190Z,4.20
2019-04-14T23:05:55.068Z,4.05
2019-04-14T23:08:28.089Z,3.72
2019-04-14T23:11:09.148Z,3.77
2019-04-14T23:13:44.049Z,3.33
2019-04-14T23:16:16.629Z,3.33
2019-04-14T23:19:02.893Z,3.87
2019-04-14T23:21:37.272Z,3.25
2019-04-14T23:24:11.768Z,3.90
2019-04-14T23:26:52.559Z,3.05
2019-04-14T23:29:19.669Z,3.17
2019-04-14T23:31:53.269Z,3.77
2019-04-14T23:34:26.237Z,3.05
2019-04-14T23:36:59.489Z,3.90
2019-04-14T23:39:33.112Z,4.05
2019-04-14T23:42:06.149Z,4.17
2019-04-14T23:44:39.348Z,3.37
2019-04-14T23:47:12.309Z,4.90
2019-04-14T23:49:45.230Z,3.40
2019-04-14T23:52:18.872Z,3.80
2019-04-14T23:54:52.212Z,3.83
2019-04-14T23:57:25.229Z,4.85
2019-04-14T23:59:58.219Z,4.83
